메인 페이지
METAR-TAF:

METAR-TAF

공항 :

쿠알라룸푸르, 말레이시아

쿠알라룸푸르 국제공항

위도: 02-44N, 경도: 101-42E, 고도: 21m

현재 날씨관측

예보는 21분 전, 00:30시(UTC)에 발표되었습니다.
무풍
온도 26°C
습도 89%
기압 1010 hPa
시정: 7000m
고도 1800ft 상공 구름 조금
고도 14000ft 상공 구름 보통
고도 28000ft 상공 구름 많음

METAR: WMKK 180030Z 00000KT 7000 FEW018 SCT140 BKN280 26/24 Q1010 NOSIG

시각: 08:51 (00:51 UTC)

예보

예보는 1 시간 51분 전, 23:00시(UTC)에 발표되었습니다.
예보 대상 시간: 18일 00시부터 19일 06시까지 (UTC)
북북서7kt
시정: 5000m
고도 1700ft 상공 구름 조금, 적란운.
고도 14000ft 상공 구름 보통
고도 28000ft 상공 구름 많음
연무
전환 중
18일 02시부터 18일 04시까지 (UTC)
시정 10km 이상
확률 30% :
일시적
18일 07시부터 18일 11시까지 (UTC)
시정: 4000m
고도 1500ft 상공 구름 조금, 적란운.
고도 1800ft 상공 구름 보통
뇌우, 비

TAF: WMKK 172300Z 1800/1906 34007KT 5000 HZ FEW017CB SCT140 BKN280 BECMG 1802/1804 9999 PROB30 TEMPO 1807/1811 4000 TSRA FEW015CB SCT018

4,000개 이상의 공항 관측 자료 및 예보 (METAR 및 TAF 보고).

지도상에서 검색 가능한 기상관측소가 노란 점과 빨간 점으로 표시되어 있습니다.

기상관측소 명을 보려면 표시 위로 마우스를 이동하세요.

날씨 관측과 예보를 보려면 클릭하세요.

지도 변경 : 확대하려면 엑스 표시가 있는 녹색 버튼, 축소하려면 빼기 표시가 있는 녹색 버튼, 다음 페이지의 지도를 보려면 녹색 화살표를 클릭하세요.


METAR-TAF: